sensor_id;sensor_type;location;lat;lon;timestamp;P1;durP1;ratioP1;P2;durP2;ratioP2
15925;SDS011;8062;53.882;10.642;2023-07-16T00:00:31;0.10;;;0.10;;
15925;SDS011;8062;53.882;10.642;2023-07-16T00:01:51;0.13;;;0.13;;
15925;SDS011;8062;53.882;10.642;2023-07-16T00:03:11;0.20;;;0.20;;
15925;SDS011;8062;53.882;10.642;2023-07-16T00:04:31;0.10;;;0.10;;
15925;SDS011;8062;53.882;10.642;2023-07-16T00:05:51;0.20;;;0.20;;
15925;SDS011;8062;53.882;10.642;2023-07-16T00:07:10;0.30;;;0.30;;
15925;SDS011;8062;53.882;10.642;2023-07-16T00:08:30;0.17;;;0.17;;
15925;SDS011;8062;53.882;10.642;2023-07-16T00:09:49;0.30;;;0.30;;
15925;SDS011;8062;53.882;10.642;2023-07-16T00:11:09;0.30;;;0.30;;
15925;SDS011;8062;53.882;10.642;2023-07-16T00:12:28;0.20;;;0.20;;
15925;SDS011;8062;53.882;10.642;2023-07-16T00:13:48;0.20;;;0.20;;
15925;SDS011;8062;53.882;10.642;2023-07-16T00:15:07;0.20;;;0.20;;
15925;SDS011;8062;53.882;10.642;2023-07-16T00:16:27;0.30;;;0.30;;
15925;SDS011;8062;53.882;10.642;2023-07-16T00:17:47;0.30;;;0.30;;
15925;SDS011;8062;53.882;10.642;2023-07-16T00:19:09;0.27;;;0.27;;
15925;SDS011;8062;53.882;10.642;2023-07-16T00:20:30;0.33;;;0.33;;
15925;SDS011;8062;53.882;10.642;2023-07-16T00:21:50;0.20;;;0.20;;
15925;SDS011;8062;53.882;10.642;2023-07-16T00:23:10;0.33;;;0.33;;
15925;SDS011;8062;53.882;10.642;2023-07-16T00:24:29;0.57;;;0.57;;
15925;SDS011;8062;53.882;10.642;2023-07-16T00:25:49;0.53;;;0.53;;
15925;SDS011;8062;53.882;10.642;2023-07-16T00:27:08;0.47;;;0.47;;
15925;SDS011;8062;53.882;10.642;2023-07-16T00:28:29;0.43;;;0.43;;
15925;SDS011;8062;53.882;10.642;2023-07-16T00:29:48;0.40;;;0.40;;
15925;SDS011;8062;53.882;10.642;2023-07-16T00:31:08;0.50;;;0.50;;
15925;SDS011;8062;53.882;10.642;2023-07-16T00:32:28;0.53;;;0.53;;
15925;SDS011;8062;53.882;10.642;2023-07-16T00:33:48;0.40;;;0.40;;
15925;SDS011;8062;53.882;10.642;2023-07-16T00:35:07;0.50;;;0.50;;
15925;SDS011;8062;53.882;10.642;2023-07-16T00:36:27;0.50;;;0.50;;
15925;SDS011;8062;53.882;10.642;2023-07-16T00:37:47;0.50;;;0.50;;
15925;SDS011;8062;53.882;10.642;2023-07-16T00:39:06;0.40;;;0.40;;
15925;SDS011;8062;53.882;10.642;2023-07-16T00:40:26;0.50;;;0.50;;
15925;SDS011;8062;53.882;10.642;2023-07-16T00:41:45;0.33;;;0.33;;
15925;SDS011;8062;53.882;10.642;2023-07-16T00:43:05;0.30;;;0.30;;
15925;SDS011;8062;53.882;10.642;2023-07-16T00:44:25;0.47;;;0.47;;
15925;SDS011;8062;53.882;10.642;2023-07-16T00:45:45;0.50;;;0.50;;
15925;SDS011;8062;53.882;10.642;2023-07-16T00:47:05;0.40;;;0.40;;
15925;SDS011;8062;53.882;10.642;2023-07-16T00:48:25;0.50;;;0.50;;
15925;SDS011;8062;53.882;10.642;2023-07-16T00:49:45;0.50;;;0.50;;
15925;SDS011;8062;53.882;10.642;2023-07-16T00:51:04;0.57;;;0.57;;
15925;SDS011;8062;53.882;10.642;2023-07-16T00:52:25;0.50;;;0.50;;
15925;SDS011;8062;53.882;10.642;2023-07-16T00:53:44;0.50;;;0.50;;
15925;SDS011;8062;53.882;10.642;2023-07-16T00:55:04;0.43;;;0.43;;
15925;SDS011;8062;53.882;10.642;2023-07-16T00:56:25;0.40;;;0.40;;
15925;SDS011;8062;53.882;10.642;2023-07-16T00:57:45;0.40;;;0.40;;
15925;SDS011;8062;53.882;10.642;2023-07-16T00:59:05;0.40;;;0.40;;
15925;SDS011;8062;53.882;10.642;2023-07-16T01:00:25;0.40;;;0.40;;
15925;SDS011;8062;53.882;10.642;2023-07-16T01:01:44;0.40;;;0.40;;
15925;SDS011;8062;53.882;10.642;2023-07-16T01:03:07;0.30;;;0.30;;
15925;SDS011;8062;53.882;10.642;2023-07-16T01:04:28;0.30;;;0.30;;
15925;SDS011;8062;53.882;10.642;2023-07-16T01:07:29;0.20;;;0.20;;
15925;SDS011;8062;53.882;10.642;2023-07-16T01:08:58;0.30;;;0.30;;
15925;SDS011;8062;53.882;10.642;2023-07-16T01:10:22;0.30;;;0.30;;
15925;SDS011;8062;53.882;10.642;2023-07-16T01:11:43;0.20;;;0.20;;
15925;SDS011;8062;53.882;10.642;2023-07-16T01:13:03;0.30;;;0.30;;
15925;SDS011;8062;53.882;10.642;2023-07-16T01:14:23;0.20;;;0.20;;
15925;SDS011;8062;53.882;10.642;2023-07-16T01:15:43;0.20;;;0.20;;
15925;SDS011;8062;53.882;10.642;2023-07-16T01:17:05;0.20;;;0.20;;
15925;SDS011;8062;53.882;10.642;2023-07-16T01:18:25;0.20;;;0.20;;
15925;SDS011;8062;53.882;10.642;2023-07-16T01:19:45;0.20;;;0.20;;
15925;SDS011;8062;53.882;10.642;2023-07-16T01:21:04;0.20;;;0.20;;
15925;SDS011;8062;53.882;10.642;2023-07-16T01:25:34;0.30;;;0.30;;
15925;SDS011;8062;53.882;10.642;2023-07-16T01:30:14;0.20;;;0.20;;
15925;SDS011;8062;53.882;10.642;2023-07-16T01:31:35;0.20;;;0.20;;
15925;SDS011;8062;53.882;10.642;2023-07-16T01:32:55;0.30;;;0.30;;
15925;SDS011;8062;53.882;10.642;2023-07-16T01:34:16;0.37;;;0.37;;
15925;SDS011;8062;53.882;10.642;2023-07-16T01:35:36;0.20;;;0.20;;
15925;SDS011;8062;53.882;10.642;2023-07-16T01:36:57;0.30;;;0.30;;
15925;SDS011;8062;53.882;10.642;2023-07-16T01:38:16;0.30;;;0.30;;
15925;SDS011;8062;53.882;10.642;2023-07-16T01:39:37;0.30;;;0.30;;
15925;SDS011;8062;53.882;10.642;2023-07-16T01:40:58;0.20;;;0.20;;
15925;SDS011;8062;53.882;10.642;2023-07-16T01:42:17;0.30;;;0.30;;
15925;SDS011;8062;53.882;10.642;2023-07-16T01:43:37;0.20;;;0.20;;
15925;SDS011;8062;53.882;10.642;2023-07-16T01:44:57;0.20;;;0.20;;
15925;SDS011;8062;53.882;10.642;2023-07-16T01:46:17;0.20;;;0.20;;
15925;SDS011;8062;53.882;10.642;2023-07-16T01:47:56;0.20;;;0.20;;
15925;SDS011;8062;53.882;10.642;2023-07-16T01:49:33;0.20;;;0.20;;
15925;SDS011;8062;53.882;10.642;2023-07-16T01:50:53;0.20;;;0.20;;
15925;SDS011;8062;53.882;10.642;2023-07-16T01:52:13;0.20;;;0.20;;
15925;SDS011;8062;53.882;10.642;2023-07-16T01:53:32;0.20;;;0.20;;
15925;SDS011;8062;53.882;10.642;2023-07-16T01:54:52;0.20;;;0.20;;
15925;SDS011;8062;53.882;10.642;2023-07-16T01:56:14;0.10;;;0.10;;
15925;SDS011;8062;53.882;10.642;2023-07-16T01:57:33;0.13;;;0.13;;
15925;SDS011;8062;53.882;10.642;2023-07-16T01:58:53;0.13;;;0.13;;
15925;SDS011;8062;53.882;10.642;2023-07-16T02:00:12;0.20;;;0.20;;
15925;SDS011;8062;53.882;10.642;2023-07-16T02:01:38;0.20;;;0.20;;
15925;SDS011;8062;53.882;10.642;2023-07-16T02:02:58;0.20;;;0.20;;
15925;SDS011;8062;53.882;10.642;2023-07-16T02:04:17;0.20;;;0.20;;
15925;SDS011;8062;53.882;10.642;2023-07-16T02:05:37;0.20;;;0.20;;
15925;SDS011;8062;53.882;10.642;2023-07-16T02:06:57;0.13;;;0.13;;
15925;SDS011;8062;53.882;10.642;2023-07-16T02:08:16;0.10;;;0.10;;
15925;SDS011;8062;53.882;10.642;2023-07-16T02:09:37;0.20;;;0.20;;
15925;SDS011;8062;53.882;10.642;2023-07-16T02:10:56;0.20;;;0.20;;
15925;SDS011;8062;53.882;10.642;2023-07-16T02:12:16;0.13;;;0.13;;
15925;SDS011;8062;53.882;10.642;2023-07-16T02:13:35;0.10;;;0.10;;
15925;SDS011;8062;53.882;10.642;2023-07-16T02:14:55;0.10;;;0.10;;
15925;SDS011;8062;53.882;10.642;2023-07-16T02:16:15;0.10;;;0.10;;
15925;SDS011;8062;53.882;10.642;2023-07-16T02:17:34;0.20;;;0.20;;
15925;SDS011;8062;53.882;10.642;2023-07-16T02:18:54;0.17;;;0.17;;
15925;SDS011;8062;53.882;10.642;2023-07-16T02:20:13;0.30;;;0.30;;
15925;SDS011;8062;53.882;10.642;2023-07-16T02:21:33;0.30;;;0.30;;
15925;SDS011;8062;53.882;10.642;2023-07-16T02:22:52;0.20;;;0.20;;
15925;SDS011;8062;53.882;10.642;2023-07-16T02:24:12;0.30;;;0.30;;
15925;SDS011;8062;53.882;10.642;2023-07-16T02:25:32;0.33;;;0.33;;
15925;SDS011;8062;53.882;10.642;2023-07-16T02:26:52;0.40;;;0.40;;
15925;SDS011;8062;53.882;10.642;2023-07-16T02:28:11;0.40;;;0.40;;
15925;SDS011;8062;53.882;10.642;2023-07-16T02:29:31;0.43;;;0.43;;
15925;SDS011;8062;53.882;10.642;2023-07-16T02:30:51;0.37;;;0.37;;
15925;SDS011;8062;53.882;10.642;2023-07-16T02:32:10;0.40;;;0.40;;
15925;SDS011;8062;53.882;10.642;2023-07-16T02:33:30;0.40;;;0.40;;
15925;SDS011;8062;53.882;10.642;2023-07-16T02:34:49;0.40;;;0.40;;
15925;SDS011;8062;53.882;10.642;2023-07-16T02:36:09;0.40;;;0.40;;
15925;SDS011;8062;53.882;10.642;2023-07-16T02:37:29;0.40;;;0.40;;
15925;SDS011;8062;53.882;10.642;2023-07-16T02:38:49;0.33;;;0.33;;
15925;SDS011;8062;53.882;10.642;2023-07-16T02:40:09;0.47;;;0.47;;
15925;SDS011;8062;53.882;10.642;2023-07-16T02:41:29;0.50;;;0.50;;
15925;SDS011;8062;53.882;10.642;2023-07-16T02:42:49;0.37;;;0.37;;
15925;SDS011;8062;53.882;10.642;2023-07-16T02:44:11;0.40;;;0.40;;
15925;SDS011;8062;53.882;10.642;2023-07-16T02:45:34;0.43;;;0.43;;
15925;SDS011;8062;53.882;10.642;2023-07-16T02:46:53;0.50;;;0.50;;
15925;SDS011;8062;53.882;10.642;2023-07-16T02:48:14;0.50;;;0.50;;
15925;SDS011;8062;53.882;10.642;2023-07-16T02:49:34;0.47;;;0.47;;
15925;SDS011;8062;53.882;10.642;2023-07-16T02:50:54;0.43;;;0.43;;
15925;SDS011;8062;53.882;10.642;2023-07-16T02:52:13;0.47;;;0.47;;
15925;SDS011;8062;53.882;10.642;2023-07-16T02:53:32;0.37;;;0.37;;
15925;SDS011;8062;53.882;10.642;2023-07-16T02:54:52;0.40;;;0.40;;
15925;SDS011;8062;53.882;10.642;2023-07-16T02:56:11;0.40;;;0.40;;
15925;SDS011;8062;53.882;10.642;2023-07-16T02:57:31;0.50;;;0.50;;
15925;SDS011;8062;53.882;10.642;2023-07-16T02:58:50;0.40;;;0.40;;
15925;SDS011;8062;53.882;10.642;2023-07-16T03:00:10;0.40;;;0.40;;
15925;SDS011;8062;53.882;10.642;2023-07-16T03:01:30;0.50;;;0.50;;
15925;SDS011;8062;53.882;10.642;2023-07-16T03:02:49;0.50;;;0.50;;
15925;SDS011;8062;53.882;10.642;2023-07-16T03:04:09;0.73;;;0.73;;
15925;SDS011;8062;53.882;10.642;2023-07-16T03:05:29;0.47;;;0.47;;
15925;SDS011;8062;53.882;10.642;2023-07-16T03:06:50;0.43;;;0.43;;
15925;SDS011;8062;53.882;10.642;2023-07-16T03:08:09;0.40;;;0.40;;
15925;SDS011;8062;53.882;10.642;2023-07-16T03:09:29;0.50;;;0.50;;
15925;SDS011;8062;53.882;10.642;2023-07-16T03:10:49;0.50;;;0.50;;
15925;SDS011;8062;53.882;10.642;2023-07-16T03:12:08;0.47;;;0.47;;
15925;SDS011;8062;53.882;10.642;2023-07-16T03:13:28;0.47;;;0.47;;
15925;SDS011;8062;53.882;10.642;2023-07-16T03:14:48;0.43;;;0.43;;
15925;SDS011;8062;53.882;10.642;2023-07-16T03:16:11;0.47;;;0.47;;
15925;SDS011;8062;53.882;10.642;2023-07-16T03:17:30;0.50;;;0.50;;
15925;SDS011;8062;53.882;10.642;2023-07-16T03:18:50;0.43;;;0.43;;
15925;SDS011;8062;53.882;10.642;2023-07-16T03:20:10;0.40;;;0.40;;
15925;SDS011;8062;53.882;10.642;2023-07-16T03:21:30;0.37;;;0.37;;
15925;SDS011;8062;53.882;10.642;2023-07-16T03:22:50;0.50;;;0.50;;
15925;SDS011;8062;53.882;10.642;2023-07-16T03:24:10;0.50;;;0.50;;
15925;SDS011;8062;53.882;10.642;2023-07-16T03:25:29;0.63;;;0.63;;
15925;SDS011;8062;53.882;10.642;2023-07-16T03:26:49;0.50;;;0.50;;
15925;SDS011;8062;53.882;10.642;2023-07-16T03:28:09;0.50;;;0.50;;
15925;SDS011;8062;53.882;10.642;2023-07-16T03:29:28;0.70;;;0.70;;
15925;SDS011;8062;53.882;10.642;2023-07-16T03:30:48;0.70;;;0.70;;
15925;SDS011;8062;53.882;10.642;2023-07-16T03:32:09;0.53;;;0.53;;
15925;SDS011;8062;53.882;10.642;2023-07-16T03:33:29;0.60;;;0.60;;
15925;SDS011;8062;53.882;10.642;2023-07-16T03:34:49;0.60;;;0.60;;
15925;SDS011;8062;53.882;10.642;2023-07-16T03:36:09;0.53;;;0.53;;
15925;SDS011;8062;53.882;10.642;2023-07-16T03:37:29;0.53;;;0.53;;
15925;SDS011;8062;53.882;10.642;2023-07-16T03:38:48;0.57;;;0.57;;
15925;SDS011;8062;53.882;10.642;2023-07-16T03:40:14;0.57;;;0.57;;
15925;SDS011;8062;53.882;10.642;2023-07-16T03:41:37;0.40;;;0.40;;
15925;SDS011;8062;53.882;10.642;2023-07-16T03:42:57;0.60;;;0.60;;
15925;SDS011;8062;53.882;10.642;2023-07-16T03:44:17;0.63;;;0.63;;
15925;SDS011;8062;53.882;10.642;2023-07-16T03:45:37;0.63;;;0.63;;
15925;SDS011;8062;53.882;10.642;2023-07-16T03:46:56;0.73;;;0.73;;
15925;SDS011;8062;53.882;10.642;2023-07-16T03:48:16;0.60;;;0.60;;
15925;SDS011;8062;53.882;10.642;2023-07-16T03:49:35;0.60;;;0.60;;
15925;SDS011;8062;53.882;10.642;2023-07-16T03:50:55;0.53;;;0.53;;
15925;SDS011;8062;53.882;10.642;2023-07-16T03:52:15;0.57;;;0.57;;
15925;SDS011;8062;53.882;10.642;2023-07-16T03:53:34;0.80;;;0.80;;
15925;SDS011;8062;53.882;10.642;2023-07-16T03:54:54;0.63;;;0.63;;
15925;SDS011;8062;53.882;10.642;2023-07-16T03:56:14;0.63;;;0.63;;
15925;SDS011;8062;53.882;10.642;2023-07-16T03:57:34;0.87;;;0.87;;
15925;SDS011;8062;53.882;10.642;2023-07-16T03:58:54;0.77;;;0.77;;
15925;SDS011;8062;53.882;10.642;2023-07-16T04:00:14;0.60;;;0.60;;
15925;SDS011;8062;53.882;10.642;2023-07-16T04:01:35;0.80;;;0.80;;
15925;SDS011;8062;53.882;10.642;2023-07-16T04:02:54;0.80;;;0.80;;
15925;SDS011;8062;53.882;10.642;2023-07-16T04:04:14;0.53;;;0.53;;
15925;SDS011;8062;53.882;10.642;2023-07-16T04:05:34;0.67;;;0.67;;
15925;SDS011;8062;53.882;10.642;2023-07-16T04:06:54;0.70;;;0.70;;
15925;SDS011;8062;53.882;10.642;2023-07-16T04:08:15;0.73;;;0.73;;
15925;SDS011;8062;53.882;10.642;2023-07-16T04:09:36;0.77;;;0.77;;
15925;SDS011;8062;53.882;10.642;2023-07-16T04:10:57;0.73;;;0.73;;
15925;SDS011;8062;53.882;10.642;2023-07-16T04:12:17;0.67;;;0.67;;
15925;SDS011;8062;53.882;10.642;2023-07-16T04:13:36;0.60;;;0.60;;
15925;SDS011;8062;53.882;10.642;2023-07-16T04:14:57;0.80;;;0.80;;
15925;SDS011;8062;53.882;10.642;2023-07-16T04:16:17;0.50;;;0.50;;
15925;SDS011;8062;53.882;10.642;2023-07-16T04:17:37;0.53;;;0.53;;
15925;SDS011;8062;53.882;10.642;2023-07-16T04:18:56;0.50;;;0.50;;
15925;SDS011;8062;53.882;10.642;2023-07-16T04:20:16;0.53;;;0.53;;
15925;SDS011;8062;53.882;10.642;2023-07-16T04:21:36;0.53;;;0.53;;
15925;SDS011;8062;53.882;10.642;2023-07-16T04:22:55;0.40;;;0.40;;
15925;SDS011;8062;53.882;10.642;2023-07-16T04:24:15;0.53;;;0.53;;
15925;SDS011;8062;53.882;10.642;2023-07-16T04:25:34;0.50;;;0.50;;
15925;SDS011;8062;53.882;10.642;2023-07-16T04:26:54;0.53;;;0.53;;
15925;SDS011;8062;53.882;10.642;2023-07-16T04:28:14;0.57;;;0.57;;
15925;SDS011;8062;53.882;10.642;2023-07-16T04:29:33;0.77;;;0.77;;
15925;SDS011;8062;53.882;10.642;2023-07-16T04:30:53;0.63;;;0.63;;
15925;SDS011;8062;53.882;10.642;2023-07-16T04:32:12;0.97;;;0.97;;
15925;SDS011;8062;53.882;10.642;2023-07-16T04:33:32;0.80;;;0.80;;
15925;SDS011;8062;53.882;10.642;2023-07-16T04:34:51;0.93;;;0.93;;
15925;SDS011;8062;53.882;10.642;2023-07-16T04:36:11;1.00;;;1.00;;
15925;SDS011;8062;53.882;10.642;2023-07-16T04:37:30;0.97;;;0.97;;
15925;SDS011;8062;53.882;10.642;2023-07-16T04:38:50;0.77;;;0.77;;
15925;SDS011;8062;53.882;10.642;2023-07-16T04:40:10;0.63;;;0.63;;
15925;SDS011;8062;53.882;10.642;2023-07-16T04:41:29;0.53;;;0.53;;
15925;SDS011;8062;53.882;10.642;2023-07-16T04:42:49;0.40;;;0.40;;
15925;SDS011;8062;53.882;10.642;2023-07-16T04:44:08;0.30;;;0.30;;
15925;SDS011;8062;53.882;10.642;2023-07-16T04:45:28;0.20;;;0.20;;
15925;SDS011;8062;53.882;10.642;2023-07-16T04:46:48;0.37;;;0.37;;
15925;SDS011;8062;53.882;10.642;2023-07-16T04:48:07;0.30;;;0.30;;
15925;SDS011;8062;53.882;10.642;2023-07-16T04:49:27;0.23;;;0.23;;
15925;SDS011;8062;53.882;10.642;2023-07-16T04:50:46;0.20;;;0.20;;
15925;SDS011;8062;53.882;10.642;2023-07-16T04:52:06;0.20;;;0.20;;
15925;SDS011;8062;53.882;10.642;2023-07-16T04:53:25;0.30;;;0.30;;
15925;SDS011;8062;53.882;10.642;2023-07-16T04:54:45;0.20;;;0.20;;
15925;SDS011;8062;53.882;10.642;2023-07-16T04:56:10;0.30;;;0.30;;
15925;SDS011;8062;53.882;10.642;2023-07-16T04:57:32;0.20;;;0.20;;
15925;SDS011;8062;53.882;10.642;2023-07-16T04:58:52;0.23;;;0.23;;
15925;SDS011;8062;53.882;10.642;2023-07-16T05:00:12;0.30;;;0.30;;
15925;SDS011;8062;53.882;10.642;2023-07-16T05:01:32;0.43;;;0.43;;
15925;SDS011;8062;53.882;10.642;2023-07-16T05:02:51;0.40;;;0.40;;
15925;SDS011;8062;53.882;10.642;2023-07-16T05:04:11;0.30;;;0.30;;
15925;SDS011;8062;53.882;10.642;2023-07-16T05:05:31;0.40;;;0.40;;
15925;SDS011;8062;53.882;10.642;2023-07-16T05:06:51;0.23;;;0.23;;
15925;SDS011;8062;53.882;10.642;2023-07-16T05:08:11;0.20;;;0.20;;
15925;SDS011;8062;53.882;10.642;2023-07-16T05:09:31;0.30;;;0.30;;
15925;SDS011;8062;53.882;10.642;2023-07-16T05:10:50;0.30;;;0.30;;
15925;SDS011;8062;53.882;10.642;2023-07-16T05:12:10;0.30;;;0.30;;
15925;SDS011;8062;53.882;10.642;2023-07-16T05:13:30;0.20;;;0.20;;
15925;SDS011;8062;53.882;10.642;2023-07-16T05:14:50;0.33;;;0.33;;
15925;SDS011;8062;53.882;10.642;2023-07-16T05:16:10;0.30;;;0.30;;
15925;SDS011;8062;53.882;10.642;2023-07-16T05:17:30;0.20;;;0.20;;
15925;SDS011;8062;53.882;10.642;2023-07-16T05:18:49;0.20;;;0.20;;
15925;SDS011;8062;53.882;10.642;2023-07-16T05:20:09;0.20;;;0.20;;
15925;SDS011;8062;53.882;10.642;2023-07-16T05:21:29;0.20;;;0.20;;
15925;SDS011;8062;53.882;10.642;2023-07-16T05:22:48;0.20;;;0.20;;
15925;SDS011;8062;53.882;10.642;2023-07-16T05:24:09;0.20;;;0.20;;
15925;SDS011;8062;53.882;10.642;2023-07-16T05:25:29;0.20;;;0.20;;
15925;SDS011;8062;53.882;10.642;2023-07-16T05:26:48;0.23;;;0.23;;
15925;SDS011;8062;53.882;10.642;2023-07-16T05:28:08;0.20;;;0.20;;
15925;SDS011;8062;53.882;10.642;2023-07-16T05:29:28;0.17;;;0.17;;
15925;SDS011;8062;53.882;10.642;2023-07-16T05:30:56;0.20;;;0.20;;
15925;SDS011;8062;53.882;10.642;2023-07-16T05:32:17;0.20;;;0.20;;
15925;SDS011;8062;53.882;10.642;2023-07-16T05:33:36;0.13;;;0.13;;
15925;SDS011;8062;53.882;10.642;2023-07-16T05:34:56;0.20;;;0.20;;
15925;SDS011;8062;53.882;10.642;2023-07-16T05:36:15;0.10;;;0.10;;
15925;SDS011;8062;53.882;10.642;2023-07-16T05:37:35;0.10;;;0.10;;
15925;SDS011;8062;53.882;10.642;2023-07-16T05:38:55;0.17;;;0.17;;
15925;SDS011;8062;53.882;10.642;2023-07-16T05:40:14;0.20;;;0.20;;
15925;SDS011;8062;53.882;10.642;2023-07-16T05:41:33;0.20;;;0.20;;
15925;SDS011;8062;53.882;10.642;2023-07-16T05:42:53;0.20;;;0.20;;
15925;SDS011;8062;53.882;10.642;2023-07-16T05:44:13;0.20;;;0.20;;
15925;SDS011;8062;53.882;10.642;2023-07-16T05:45:32;0.10;;;0.10;;
15925;SDS011;8062;53.882;10.642;2023-07-16T05:46:53;0.10;;;0.10;;
15925;SDS011;8062;53.882;10.642;2023-07-16T05:48:12;0.20;;;0.20;;
15925;SDS011;8062;53.882;10.642;2023-07-16T05:49:32;0.10;;;0.10;;
15925;SDS011;8062;53.882;10.642;2023-07-16T05:50:51;0.10;;;0.10;;
15925;SDS011;8062;53.882;10.642;2023-07-16T05:52:11;0.20;;;0.20;;
15925;SDS011;8062;53.882;10.642;2023-07-16T05:53:30;0.10;;;0.10;;
15925;SDS011;8062;53.882;10.642;2023-07-16T05:54:50;0.20;;;0.20;;
15925;SDS011;8062;53.882;10.642;2023-07-16T05:56:09;0.10;;;0.10;;
15925;SDS011;8062;53.882;10.642;2023-07-16T05:57:29;0.10;;;0.10;;
15925;SDS011;8062;53.882;10.642;2023-07-16T05:58:48;0.10;;;0.10;;
15925;SDS011;8062;53.882;10.642;2023-07-16T06:00:08;0.10;;;0.10;;
15925;SDS011;8062;53.882;10.642;2023-07-16T06:01:31;0.20;;;0.20;;
15925;SDS011;8062;53.882;10.642;2023-07-16T06:02:50;0.13;;;0.13;;
15925;SDS011;8062;53.882;10.642;2023-07-16T06:04:10;0.10;;;0.10;;
15925;SDS011;8062;53.882;10.642;2023-07-16T06:05:29;0.10;;;0.10;;
15925;SDS011;8062;53.882;10.642;2023-07-16T06:06:53;0.10;;;0.10;;
15925;SDS011;8062;53.882;10.642;2023-07-16T06:08:12;0.10;;;0.10;;
15925;SDS011;8062;53.882;10.642;2023-07-16T06:09:33;0.10;;;0.10;;
15925;SDS011;8062;53.882;10.642;2023-07-16T06:10:52;0.10;;;0.10;;
15925;SDS011;8062;53.882;10.642;2023-07-16T06:12:12;0.10;;;0.10;;
15925;SDS011;8062;53.882;10.642;2023-07-16T06:13:31;0.10;;;0.10;;
15925;SDS011;8062;53.882;10.642;2023-07-16T06:14:51;0.10;;;0.10;;
15925;SDS011;8062;53.882;10.642;2023-07-16T06:16:12;0.10;;;0.10;;
15925;SDS011;8062;53.882;10.642;2023-07-16T06:17:31;0.10;;;0.10;;
15925;SDS011;8062;53.882;10.642;2023-07-16T06:18:51;0.10;;;0.10;;
15925;SDS011;8062;53.882;10.642;2023-07-16T06:20:10;0.10;;;0.10;;
15925;SDS011;8062;53.882;10.642;2023-07-16T06:21:30;0.10;;;0.10;;
15925;SDS011;8062;53.882;10.642;2023-07-16T06:22:50;0.10;;;0.10;;
15925;SDS011;8062;53.882;10.642;2023-07-16T06:24:09;0.10;;;0.10;;
15925;SDS011;8062;53.882;10.642;2023-07-16T06:25:28;0.03;;;0.03;;
15925;SDS011;8062;53.882;10.642;2023-07-16T06:26:48;0.17;;;0.17;;
15925;SDS011;8062;53.882;10.642;2023-07-16T06:28:07;0.20;;;0.20;;
15925;SDS011;8062;53.882;10.642;2023-07-16T06:29:27;0.10;;;0.10;;
15925;SDS011;8062;53.882;10.642;2023-07-16T06:30:46;0.10;;;0.10;;
15925;SDS011;8062;53.882;10.642;2023-07-16T06:32:06;0.17;;;0.17;;
15925;SDS011;8062;53.882;10.642;2023-07-16T06:33:26;0.10;;;0.10;;
15925;SDS011;8062;53.882;10.642;2023-07-16T06:34:47;0.10;;;0.10;;
15925;SDS011;8062;53.882;10.642;2023-07-16T06:36:07;0.10;;;0.10;;
15925;SDS011;8062;53.882;10.642;2023-07-16T06:37:26;0.20;;;0.20;;
15925;SDS011;8062;53.882;10.642;2023-07-16T06:38:46;0.10;;;0.10;;
15925;SDS011;8062;53.882;10.642;2023-07-16T06:40:06;0.20;;;0.20;;
15925;SDS011;8062;53.882;10.642;2023-07-16T06:41:26;0.10;;;0.10;;
15925;SDS011;8062;53.882;10.642;2023-07-16T06:42:46;0.10;;;0.10;;
15925;SDS011;8062;53.882;10.642;2023-07-16T06:44:05;0.20;;;0.20;;
15925;SDS011;8062;53.882;10.642;2023-07-16T06:45:25;0.20;;;0.20;;
15925;SDS011;8062;53.882;10.642;2023-07-16T06:46:45;0.17;;;0.17;;
15925;SDS011;8062;53.882;10.642;2023-07-16T06:48:05;0.20;;;0.20;;
15925;SDS011;8062;53.882;10.642;2023-07-16T06:49:24;0.20;;;0.20;;
15925;SDS011;8062;53.882;10.642;2023-07-16T06:50:44;0.20;;;0.20;;
15925;SDS011;8062;53.882;10.642;2023-07-16T06:52:03;0.10;;;0.10;;
15925;SDS011;8062;53.882;10.642;2023-07-16T06:53:23;0.30;;;0.30;;
15925;SDS011;8062;53.882;10.642;2023-07-16T06:54:43;0.30;;;0.30;;
15925;SDS011;8062;53.882;10.642;2023-07-16T06:56:03;0.40;;;0.40;;
15925;SDS011;8062;53.882;10.642;2023-07-16T06:57:23;0.30;;;0.30;;
15925;SDS011;8062;53.882;10.642;2023-07-16T06:58:43;0.50;;;0.50;;
15925;SDS011;8062;53.882;10.642;2023-07-16T07:00:02;0.50;;;0.50;;
15925;SDS011;8062;53.882;10.642;2023-07-16T07:01:23;0.40;;;0.40;;
15925;SDS011;8062;53.882;10.642;2023-07-16T07:02:43;0.30;;;0.30;;
15925;SDS011;8062;53.882;10.642;2023-07-16T07:04:02;0.30;;;0.30;;
15925;SDS011;8062;53.882;10.642;2023-07-16T07:05:21;0.38;;;0.38;;
15925;SDS011;8062;53.882;10.642;2023-07-16T07:06:41;0.30;;;0.30;;
15925;SDS011;8062;53.882;10.642;2023-07-16T07:08:01;0.30;;;0.30;;
15925;SDS011;8062;53.882;10.642;2023-07-16T07:09:21;0.20;;;0.20;;
15925;SDS011;8062;53.882;10.642;2023-07-16T07:10:41;0.10;;;0.10;;
15925;SDS011;8062;53.882;10.642;2023-07-16T07:12:00;0.10;;;0.10;;
15925;SDS011;8062;53.882;10.642;2023-07-16T07:13:20;0.00;;;0.00;;
15925;SDS011;8062;53.882;10.642;2023-07-16T07:14:40;0.10;;;0.10;;
15925;SDS011;8062;53.882;10.642;2023-07-16T07:16:01;0.00;;;0.00;;
15925;SDS011;8062;53.882;10.642;2023-07-16T07:17:20;0.00;;;0.00;;
15925;SDS011;8062;53.882;10.642;2023-07-16T07:18:39;0.00;;;0.00;;
15925;SDS011;8062;53.882;10.642;2023-07-16T07:19:59;0.00;;;0.00;;
15925;SDS011;8062;53.882;10.642;2023-07-16T07:21:19;0.00;;;0.00;;
15925;SDS011;8062;53.882;10.642;2023-07-16T07:22:39;0.00;;;0.00;;
15925;SDS011;8062;53.882;10.642;2023-07-16T07:23:58;0.00;;;0.00;;
15925;SDS011;8062;53.882;10.642;2023-07-16T07:25:18;0.00;;;0.00;;
15925;SDS011;8062;53.882;10.642;2023-07-16T07:26:38;0.00;;;0.00;;
15925;SDS011;8062;53.882;10.642;2023-07-16T07:27:57;0.00;;;0.00;;
15925;SDS011;8062;53.882;10.642;2023-07-16T07:29:16;0.00;;;0.00;;
15925;SDS011;8062;53.882;10.642;2023-07-16T07:30:36;0.00;;;0.00;;
15925;SDS011;8062;53.882;10.642;2023-07-16T07:31:55;0.00;;;0.00;;
15925;SDS011;8062;53.882;10.642;2023-07-16T07:33:15;0.00;;;0.00;;
15925;SDS011;8062;53.882;10.642;2023-07-16T07:34:35;0.00;;;0.00;;
15925;SDS011;8062;53.882;10.642;2023-07-16T07:35:54;0.00;;;0.00;;
15925;SDS011;8062;53.882;10.642;2023-07-16T07:37:14;0.00;;;0.00;;
15925;SDS011;8062;53.882;10.642;2023-07-16T07:38:34;0.10;;;0.10;;
15925;SDS011;8062;53.882;10.642;2023-07-16T07:39:53;0.00;;;0.00;;
15925;SDS011;8062;53.882;10.642;2023-07-16T07:41:13;0.00;;;0.00;;
15925;SDS011;8062;53.882;10.642;2023-07-16T07:42:32;0.00;;;0.00;;
15925;SDS011;8062;53.882;10.642;2023-07-16T07:43:51;0.00;;;0.00;;
15925;SDS011;8062;53.882;10.642;2023-07-16T07:45:11;0.00;;;0.00;;
15925;SDS011;8062;53.882;10.642;2023-07-16T07:46:34;0.00;;;0.00;;
15925;SDS011;8062;53.882;10.642;2023-07-16T07:47:53;0.00;;;0.00;;
15925;SDS011;8062;53.882;10.642;2023-07-16T07:49:12;0.00;;;0.00;;
15925;SDS011;8062;53.882;10.642;2023-07-16T07:50:32;0.10;;;0.10;;
15925;SDS011;8062;53.882;10.642;2023-07-16T07:51:52;0.00;;;0.00;;
15925;SDS011;8062;53.882;10.642;2023-07-16T07:53:11;0.10;;;0.10;;
15925;SDS011;8062;53.882;10.642;2023-07-16T07:54:31;0.05;;;0.05;;
15925;SDS011;8062;53.882;10.642;2023-07-16T07:55:51;0.00;;;0.00;;
15925;SDS011;8062;53.882;10.642;2023-07-16T07:57:11;0.00;;;0.00;;
15925;SDS011;8062;53.882;10.642;2023-07-16T07:58:31;0.00;;;0.00;;
15925;SDS011;8062;53.882;10.642;2023-07-16T07:59:50;0.00;;;0.00;;
15925;SDS011;8062;53.882;10.642;2023-07-16T08:01:15;0.00;;;0.00;;
15925;SDS011;8062;53.882;10.642;2023-07-16T08:02:35;0.00;;;0.00;;
15925;SDS011;8062;53.882;10.642;2023-07-16T08:03:54;0.00;;;0.00;;
15925;SDS011;8062;53.882;10.642;2023-07-16T08:05:14;0.00;;;0.00;;
15925;SDS011;8062;53.882;10.642;2023-07-16T08:06:33;0.00;;;0.00;;
15925;SDS011;8062;53.882;10.642;2023-07-16T08:07:53;0.00;;;0.00;;
15925;SDS011;8062;53.882;10.642;2023-07-16T08:09:14;0.00;;;0.00;;
15925;SDS011;8062;53.882;10.642;2023-07-16T08:10:34;0.00;;;0.00;;